createdAt,value
2019-03-31T00:02:14.368Z,69.94
2019-03-31T00:04:45.026Z,69.87
2019-03-31T00:07:15.566Z,69.93
2019-03-31T00:09:46.087Z,69.86
2019-03-31T00:12:16.718Z,69.74
2019-03-31T00:14:47.145Z,69.65
2019-03-31T00:17:18.382Z,69.66
2019-03-31T00:19:50.398Z,69.55
2019-03-31T00:22:21.191Z,69.70
2019-03-31T00:24:53.626Z,69.71
2019-03-31T00:27:24.246Z,69.70
2019-03-31T00:29:54.618Z,69.60
2019-03-31T00:32:25.142Z,69.63
2019-03-31T00:34:55.655Z,70.02
2019-03-31T00:37:26.207Z,70.49
2019-03-31T00:39:57.031Z,70.78
2019-03-31T00:42:27.571Z,70.89
2019-03-31T00:44:58.088Z,71.40
2019-03-31T00:47:28.615Z,71.59
2019-03-31T00:49:59.140Z,71.80
2019-03-31T00:52:29.741Z,72.17
2019-03-31T00:55:04.403Z,72.15
2019-03-31T00:57:35.518Z,72.17
2019-03-31T01:00:08.444Z,72.37
2019-03-31T01:02:40.709Z,72.34
2019-03-31T01:05:11.710Z,72.42
2019-03-31T01:07:42.457Z,72.43
2019-03-31T01:10:13.363Z,72.61
2019-03-31T01:12:44.033Z,72.57
2019-03-31T01:15:17.218Z,72.60
2019-03-31T01:17:48.008Z,72.52
2019-03-31T01:20:20.013Z,72.59
2019-03-31T01:22:50.681Z,72.63
2019-03-31T01:25:21.452Z,72.62
2019-03-31T01:27:52.320Z,72.44
2019-03-31T01:30:23.514Z,72.63
2019-03-31T01:32:55.443Z,72.63
2019-03-31T01:35:26.423Z,72.47
2019-03-31T01:37:57.013Z,72.69
2019-03-31T01:40:27.483Z,73.20
2019-03-31T01:42:57.991Z,73.35
2019-03-31T01:45:28.326Z,73.46
2019-03-31T01:47:59.389Z,73.57
2019-03-31T01:50:30.792Z,73.86
2019-03-31T01:53:01.128Z,74.35
2019-03-31T01:55:32.617Z,74.39
2019-03-31T01:58:03.469Z,74.41
2019-03-31T02:00:39.320Z,74.51
2019-03-31T02:03:10.363Z,74.62
2019-03-31T02:05:40.955Z,74.59
2019-03-31T02:08:11.632Z,74.83
2019-03-31T02:10:42.255Z,74.90
2019-03-31T02:13:13.161Z,74.71
2019-03-31T02:15:43.559Z,74.81
2019-03-31T02:18:14.754Z,74.96
2019-03-31T02:20:45.083Z,75.02
2019-03-31T02:23:16.728Z,75.03
2019-03-31T02:25:48.476Z,74.97
2019-03-31T02:28:20.038Z,75.05
2019-03-31T02:30:50.501Z,74.97
2019-03-31T02:33:22.162Z,75.03
2019-03-31T02:35:52.599Z,75.26
2019-03-31T02:38:23.018Z,75.26
2019-03-31T02:40:53.726Z,75.32
2019-03-31T02:43:24.439Z,75.32
2019-03-31T02:45:54.867Z,75.25
2019-03-31T02:48:25.338Z,75.27
2019-03-31T02:50:56.766Z,74.94
2019-03-31T02:53:27.253Z,75.20
2019-03-31T02:55:58.072Z,75.21
2019-03-31T02:58:30.146Z,75.35
2019-03-31T03:01:01.097Z,75.51
2019-03-31T03:03:33.434Z,76.12
2019-03-31T03:06:05.492Z,76.36
2019-03-31T03:08:39.105Z,76.63
2019-03-31T03:11:10.547Z,76.91
2019-03-31T03:13:43.649Z,77.34
2019-03-31T03:16:32.413Z,77.73
2019-03-31T03:19:03.215Z,77.73
2019-03-31T03:21:33.890Z,77.68
2019-03-31T03:24:04.316Z,77.91
2019-03-31T03:26:34.934Z,78.04
2019-03-31T03:29:06.487Z,78.45
2019-03-31T03:31:37.087Z,78.59
2019-03-31T03:34:07.907Z,78.69
2019-03-31T03:36:42.599Z,79.09
2019-03-31T03:39:10.299Z,79.53
2019-03-31T03:41:41.214Z,79.68
2019-03-31T03:44:11.836Z,79.85
2019-03-31T03:46:42.608Z,80.17
2019-03-31T03:49:13.721Z,79.99
2019-03-31T03:51:44.272Z,79.92
2019-03-31T03:54:14.882Z,79.84
2019-03-31T03:56:45.213Z,79.59
2019-03-31T03:59:16.298Z,79.47
2019-03-31T04:01:47.212Z,79.42
2019-03-31T04:04:18.037Z,79.55
2019-03-31T04:06:48.572Z,79.73
2019-03-31T04:09:19.199Z,80.50
2019-03-31T04:11:49.534Z,80.50
2019-03-31T04:14:20.896Z,79.99
2019-03-31T04:16:51.297Z,80.32
2019-03-31T04:19:22.145Z,80.31
2019-03-31T04:21:52.638Z,80.27
2019-03-31T04:24:23.513Z,80.17
2019-03-31T04:26:54.332Z,80.18
2019-03-31T04:29:25.124Z,80.25
2019-03-31T04:31:55.544Z,80.29
2019-03-31T04:34:25.949Z,80.40
2019-03-31T04:36:56.433Z,80.34
2019-03-31T04:39:27.142Z,80.52
2019-03-31T04:41:57.963Z,80.91
2019-03-31T04:44:29.550Z,81.03
2019-03-31T04:47:00.672Z,81.14
2019-03-31T04:49:31.223Z,81.27
2019-03-31T04:52:01.558Z,81.22
2019-03-31T04:54:32.165Z,81.15
2019-03-31T04:57:04.521Z,81.60
2019-03-31T04:59:35.034Z,81.81
2019-03-31T05:02:06.325Z,81.64
2019-03-31T05:04:37.168Z,81.73
2019-03-31T05:07:07.485Z,81.52
2019-03-31T05:09:38.232Z,81.29
2019-03-31T05:12:08.734Z,80.98
2019-03-31T05:14:39.337Z,80.64
2019-03-31T05:17:10.101Z,80.43
2019-03-31T05:19:41.243Z,80.20
2019-03-31T05:22:11.926Z,80.04
2019-03-31T05:24:42.252Z,79.83
2019-03-31T05:27:12.586Z,79.53
2019-03-31T05:29:43.389Z,79.31
2019-03-31T05:32:14.302Z,79.04
2019-03-31T05:34:45.227Z,78.77
2019-03-31T05:37:16.075Z,78.57
2019-03-31T05:39:46.709Z,78.42
2019-03-31T05:42:17.243Z,78.36
2019-03-31T05:44:48.056Z,78.28
2019-03-31T05:47:18.834Z,78.15
2019-03-31T05:49:49.609Z,78.00
2019-03-31T05:52:20.752Z,78.06
2019-03-31T05:54:51.257Z,78.08
2019-03-31T05:57:21.966Z,78.10
2019-03-31T05:59:52.746Z,78.09
2019-03-31T06:02:23.258Z,77.94
2019-03-31T06:04:53.680Z,77.83
2019-03-31T06:07:24.514Z,77.74
2019-03-31T06:09:55.352Z,77.85
2019-03-31T06:12:26.224Z,77.80
2019-03-31T06:14:57.366Z,77.75
2019-03-31T06:17:29.029Z,77.75
2019-03-31T06:19:59.485Z,78.00
2019-03-31T06:22:30.304Z,78.03
2019-03-31T06:25:00.821Z,78.10
2019-03-31T06:27:31.220Z,78.10
2019-03-31T06:30:01.807Z,78.02
2019-03-31T06:32:32.133Z,77.82
2019-03-31T06:35:02.857Z,77.68
2019-03-31T06:37:33.256Z,77.62
2019-03-31T06:40:03.895Z,77.52
2019-03-31T06:42:34.519Z,77.35
2019-03-31T06:45:07.216Z,77.26
2019-03-31T06:47:37.837Z,77.15
2019-03-31T06:50:08.763Z,76.96
2019-03-31T06:52:39.411Z,76.74
2019-03-31T06:55:10.984Z,76.58
2019-03-31T06:57:41.679Z,76.43
2019-03-31T07:00:13.347Z,76.15
2019-03-31T07:02:44.160Z,76.03
2019-03-31T07:05:14.978Z,75.97
2019-03-31T07:07:45.356Z,75.80
2019-03-31T07:10:16.332Z,75.62
2019-03-31T07:12:47.429Z,75.42
2019-03-31T07:15:18.547Z,75.28
2019-03-31T07:17:49.300Z,75.12
2019-03-31T07:20:20.718Z,75.15
2019-03-31T07:22:51.457Z,74.99
2019-03-31T07:25:22.217Z,74.87
2019-03-31T07:27:52.958Z,74.90
2019-03-31T07:30:23.936Z,74.85
2019-03-31T07:32:54.307Z,74.92
2019-03-31T07:35:24.854Z,74.92
2019-03-31T07:37:55.467Z,74.92
2019-03-31T07:40:26.353Z,74.56
2019-03-31T07:42:57.100Z,74.55
2019-03-31T07:45:27.451Z,74.48
2019-03-31T07:47:58.034Z,74.48
2019-03-31T07:50:28.529Z,74.43
2019-03-31T07:52:59.337Z,74.28
2019-03-31T07:55:29.982Z,74.21
2019-03-31T07:58:02.299Z,74.17
2019-03-31T08:00:32.883Z,73.72
2019-03-31T08:03:03.602Z,73.68
2019-03-31T08:05:37.606Z,73.55
2019-03-31T08:15:35.755Z,72.74
2019-03-31T08:18:07.084Z,72.67
2019-03-31T08:20:37.835Z,72.37
2019-03-31T08:23:08.664Z,70.96
2019-03-31T08:25:39.298Z,70.96
2019-03-31T08:28:10.436Z,70.98
2019-03-31T08:30:42.194Z,70.55
2019-03-31T08:33:13.204Z,69.97
2019-03-31T08:35:47.508Z,69.67
2019-03-31T08:38:16.342Z,69.38
2019-03-31T08:40:46.882Z,69.44
2019-03-31T08:43:17.394Z,68.88
2019-03-31T08:45:47.922Z,68.17
2019-03-31T08:48:18.640Z,68.32
2019-03-31T08:50:49.468Z,68.35
2019-03-31T08:53:20.430Z,68.25
2019-03-31T08:55:51.163Z,66.81
2019-03-31T08:58:22.786Z,66.99
2019-03-31T09:00:57.238Z,66.99
2019-03-31T09:03:27.764Z,66.58
2019-03-31T09:06:02.025Z,66.21
2019-03-31T09:08:30.667Z,66.30
2019-03-31T09:11:02.188Z,66.43
2019-03-31T09:13:32.936Z,66.24
2019-03-31T09:16:03.486Z,65.60
2019-03-31T09:18:34.334Z,64.94
2019-03-31T09:21:10.782Z,64.26
2019-03-31T09:23:42.396Z,63.97
2019-03-31T09:26:13.747Z,63.49
2019-03-31T09:28:44.106Z,62.49
2019-03-31T09:31:15.459Z,62.45
2019-03-31T09:33:46.092Z,61.79
2019-03-31T09:36:17.134Z,61.62
2019-03-31T09:38:48.641Z,61.75
2019-03-31T09:41:19.226Z,61.78
2019-03-31T09:43:49.830Z,60.55
2019-03-31T09:46:20.433Z,60.14
2019-03-31T09:48:51.013Z,59.31
2019-03-31T09:51:22.134Z,59.32
2019-03-31T09:53:52.947Z,58.15
2019-03-31T09:56:24.081Z,57.10
2019-03-31T09:58:54.688Z,56.03
2019-03-31T10:01:25.788Z,55.18
2019-03-31T10:03:56.276Z,55.13
2019-03-31T10:06:30.642Z,54.92
2019-03-31T10:08:59.779Z,54.35
2019-03-31T10:11:30.151Z,53.83
2019-03-31T10:14:00.685Z,53.07
2019-03-31T10:16:31.389Z,52.90
2019-03-31T10:19:02.042Z,48.25
2019-03-31T10:21:32.581Z,48.25
2019-03-31T10:24:03.120Z,48.30
2019-03-31T10:26:35.030Z,48.48
2019-03-31T10:29:06.315Z,48.48
2019-03-31T10:31:37.937Z,47.90
2019-03-31T10:34:08.281Z,47.90
2019-03-31T10:36:44.728Z,46.89
2019-03-31T10:39:11.414Z,47.53
2019-03-31T10:41:42.101Z,45.80
2019-03-31T10:44:13.056Z,45.80
2019-03-31T10:46:43.692Z,46.06
2019-03-31T10:49:14.369Z,44.33
2019-03-31T10:51:45.080Z,44.44
2019-03-31T10:54:15.667Z,44.11
2019-03-31T10:56:46.610Z,44.49
2019-03-31T10:59:17.227Z,44.49
2019-03-31T11:01:47.976Z,44.02
2019-03-31T11:04:18.499Z,44.02
2019-03-31T11:06:58.821Z,42.46
2019-03-31T11:09:21.685Z,42.94
2019-03-31T11:11:52.575Z,42.20
2019-03-31T11:14:23.738Z,42.20
2019-03-31T11:16:54.284Z,42.81
2019-03-31T11:19:24.854Z,42.81
2019-03-31T11:21:59.937Z,42.40
2019-03-31T11:24:30.791Z,41.70
2019-03-31T11:27:01.544Z,41.79
2019-03-31T11:29:32.210Z,42.59
2019-03-31T11:32:03.548Z,42.59
2019-03-31T11:34:34.475Z,42.11
2019-03-31T11:37:13.392Z,41.95
2019-03-31T11:39:38.797Z,41.79
2019-03-31T11:42:09.262Z,41.72
2019-03-31T11:44:39.687Z,40.92
2019-03-31T11:47:10.496Z,40.21
2019-03-31T11:49:42.450Z,39.40
2019-03-31T11:52:13.590Z,39.40
2019-03-31T11:54:45.902Z,39.19
2019-03-31T11:57:17.714Z,38.38
2019-03-31T11:59:49.841Z,38.50
2019-03-31T12:02:27.268Z,39.04
2019-03-31T12:04:53.432Z,39.04
2019-03-31T12:07:28.211Z,38.55
2019-03-31T12:09:57.325Z,38.47
2019-03-31T12:12:29.116Z,38.01
2019-03-31T12:15:01.196Z,38.01
2019-03-31T12:17:32.217Z,38.03
2019-03-31T12:20:03.101Z,38.03
2019-03-31T12:22:33.889Z,38.44
2019-03-31T12:25:05.163Z,38.44
2019-03-31T12:27:35.858Z,38.40
2019-03-31T12:30:07.425Z,38.40
2019-03-31T12:32:38.964Z,39.00
2019-03-31T12:35:10.167Z,39.03
2019-03-31T12:37:43.097Z,37.90
2019-03-31T12:40:28.796Z,39.00
2019-03-31T12:42:59.307Z,39.08
2019-03-31T12:45:31.481Z,39.46
2019-03-31T12:48:01.963Z,38.78
2019-03-31T12:50:32.824Z,38.78
2019-03-31T12:53:01.701Z,38.79
2019-03-31T12:55:30.401Z,37.29
2019-03-31T12:57:59.993Z,37.29
2019-03-31T13:00:30.688Z,37.88
2019-03-31T13:03:01.713Z,38.05
2019-03-31T13:05:33.153Z,37.74
2019-03-31T13:08:04.154Z,37.72
2019-03-31T13:10:37.736Z,37.68
2019-03-31T13:13:08.805Z,37.00
2019-03-31T13:15:39.676Z,37.00
2019-03-31T13:18:10.779Z,37.37
2019-03-31T13:20:41.496Z,36.87
2019-03-31T13:23:12.637Z,36.12
2019-03-31T13:25:43.507Z,36.83
2019-03-31T13:28:14.651Z,36.83
2019-03-31T13:30:45.183Z,36.22
2019-03-31T13:33:16.382Z,34.60
2019-03-31T13:35:46.920Z,34.60
2019-03-31T13:38:17.380Z,35.76
2019-03-31T13:40:50.540Z,34.99
2019-03-31T13:43:21.424Z,35.31
2019-03-31T13:45:52.054Z,34.90
2019-03-31T13:48:22.873Z,34.96
2019-03-31T13:50:59.237Z,34.91
2019-03-31T13:53:30.090Z,34.90
2019-03-31T13:56:01.511Z,34.90
2019-03-31T13:58:33.649Z,35.66
2019-03-31T14:01:04.947Z,35.66
2019-03-31T14:03:35.582Z,34.76
2019-03-31T14:06:06.694Z,35.36
2019-03-31T14:08:37.250Z,35.36
2019-03-31T14:11:08.067Z,34.99
2019-03-31T14:13:39.247Z,35.18
2019-03-31T14:16:09.750Z,35.61
2019-03-31T14:18:40.945Z,35.61
2019-03-31T14:21:11.430Z,35.88
2019-03-31T14:23:43.888Z,35.59
2019-03-31T14:26:14.011Z,35.59
2019-03-31T14:28:44.549Z,35.59
2019-03-31T14:31:15.687Z,35.31
2019-03-31T14:33:47.444Z,36.50
2019-03-31T14:36:18.352Z,36.44
2019-03-31T14:38:49.514Z,36.44
2019-03-31T14:41:20.247Z,36.34
2019-03-31T14:43:51.169Z,36.27
2019-03-31T14:46:22.550Z,36.55
2019-03-31T14:48:53.363Z,36.93
2019-03-31T14:51:25.383Z,36.93
2019-03-31T14:53:56.057Z,36.62
2019-03-31T14:56:27.433Z,36.62
2019-03-31T14:58:58.259Z,36.80
2019-03-31T15:01:29.080Z,36.93
2019-03-31T15:04:00.556Z,36.93
2019-03-31T15:06:31.070Z,37.47
2019-03-31T15:09:01.610Z,37.47
2019-03-31T15:11:34.575Z,37.46
2019-03-31T15:14:13.713Z,37.88
2019-03-31T15:16:48.425Z,37.65
2019-03-31T15:19:18.466Z,37.83
2019-03-31T15:21:48.999Z,38.43
2019-03-31T15:24:19.841Z,38.43
2019-03-31T15:26:50.351Z,37.91
2019-03-31T15:29:20.873Z,37.89
2019-03-31T15:31:51.409Z,37.93
2019-03-31T15:34:22.234Z,37.46
2019-03-31T15:36:53.082Z,37.62
2019-03-31T15:39:23.612Z,37.62
2019-03-31T15:41:54.117Z,37.38
2019-03-31T15:44:24.660Z,37.38
2019-03-31T15:46:55.807Z,37.69
2019-03-31T15:49:26.326Z,37.69
2019-03-31T15:51:56.864Z,37.47
2019-03-31T15:54:25.836Z,37.39
2019-03-31T15:56:56.695Z,37.58
2019-03-31T15:59:27.837Z,37.35
2019-03-31T16:01:58.360Z,37.31
2019-03-31T16:04:28.902Z,38.18
2019-03-31T16:06:59.431Z,38.18
2019-03-31T16:09:29.416Z,38.63
2019-03-31T16:11:59.710Z,38.72
2019-03-31T16:14:29.702Z,38.72
2019-03-31T16:16:59.779Z,38.85
2019-03-31T16:19:29.776Z,39.09
2019-03-31T16:21:59.586Z,39.14
2019-03-31T16:24:39.368Z,39.05
2019-03-31T16:27:09.413Z,39.10
2019-03-31T16:29:39.570Z,39.67
2019-03-31T16:32:09.719Z,39.67
2019-03-31T16:34:39.902Z,39.69
2019-03-31T16:37:09.872Z,39.95
2019-03-31T16:39:39.737Z,40.26
2019-03-31T16:42:10.263Z,40.14
2019-03-31T16:44:40.512Z,40.14
2019-03-31T16:47:10.738Z,40.45
2019-03-31T16:49:41.551Z,40.33
2019-03-31T16:52:11.969Z,40.33
2019-03-31T16:54:41.988Z,40.69
2019-03-31T16:57:10.750Z,40.89
2019-03-31T16:59:39.296Z,40.99
2019-03-31T17:02:10.094Z,40.79
2019-03-31T17:04:40.133Z,41.09
2019-03-31T17:07:10.341Z,41.48
2019-03-31T17:09:50.950Z,42.09
2019-03-31T17:12:12.643Z,42.09
2019-03-31T17:14:42.846Z,42.37
2019-03-31T17:17:12.930Z,42.42
2019-03-31T17:19:42.993Z,42.70
2019-03-31T17:22:12.933Z,43.06
2019-03-31T17:24:42.806Z,43.46
2019-03-31T17:27:14.189Z,43.58
2019-03-31T17:29:45.273Z,43.86
2019-03-31T17:32:15.335Z,43.86
2019-03-31T17:34:46.775Z,44.34
2019-03-31T17:37:17.144Z,44.38
2019-03-31T17:39:47.290Z,44.47
2019-03-31T17:42:17.659Z,44.49
2019-03-31T17:44:48.318Z,44.47
2019-03-31T17:47:18.503Z,44.48
2019-03-31T17:49:48.851Z,44.67
2019-03-31T17:52:19.258Z,44.97
2019-03-31T17:54:49.475Z,45.01
2019-03-31T17:57:20.496Z,45.12
2019-03-31T17:59:50.957Z,45.27
2019-03-31T18:02:21.340Z,45.22
2019-03-31T18:04:51.309Z,45.26
2019-03-31T18:07:21.401Z,45.48
2019-03-31T18:09:52.788Z,45.48
2019-03-31T18:12:23.161Z,45.49
2019-03-31T18:14:53.224Z,45.71
2019-03-31T18:17:23.604Z,45.93
2019-03-31T18:19:53.727Z,46.25
2019-03-31T18:22:23.840Z,46.56
2019-03-31T18:24:53.668Z,46.69
2019-03-31T18:27:23.559Z,46.80
2019-03-31T18:29:53.807Z,46.81
2019-03-31T18:32:24.121Z,47.04
2019-03-31T18:34:54.006Z,47.08
2019-03-31T18:37:24.446Z,47.44
2019-03-31T18:39:54.365Z,47.56
2019-03-31T18:42:24.299Z,47.64
2019-03-31T18:44:54.642Z,47.78
2019-03-31T18:47:24.737Z,47.94
2019-03-31T18:49:54.970Z,47.87
2019-03-31T18:52:24.764Z,48.10
2019-03-31T18:55:12.838Z,47.79
2019-03-31T18:58:01.075Z,47.79
2019-03-31T19:00:41.091Z,48.30
2019-03-31T19:03:48.394Z,48.59
2019-03-31T19:06:36.266Z,48.88
2019-03-31T19:09:15.178Z,49.01
2019-03-31T19:12:02.453Z,49.14
2019-03-31T19:14:39.796Z,49.44
2019-03-31T19:17:43.823Z,49.25
2019-03-31T19:20:23.072Z,49.42
2019-03-31T19:23:19.929Z,49.52
2019-03-31T19:26:18.172Z,49.56
2019-03-31T19:29:06.825Z,49.83
2019-03-31T19:32:07.864Z,49.95
2019-03-31T19:34:55.159Z,50.06
2019-03-31T19:37:42.748Z,50.32
2019-03-31T19:40:35.378Z,50.81
2019-03-31T19:43:15.099Z,50.86
2019-03-31T19:46:10.399Z,51.20
2019-03-31T19:48:58.171Z,51.26
2019-03-31T19:51:38.373Z,51.44
2019-03-31T19:54:40.580Z,51.71
2019-03-31T19:57:23.878Z,51.88
2019-03-31T20:00:14.031Z,52.14
2019-03-31T20:02:57.773Z,52.29
2019-03-31T20:05:36.145Z,52.45
2019-03-31T20:08:31.135Z,52.68
2019-03-31T20:11:12.414Z,52.85
2019-03-31T20:14:01.611Z,53.27
2019-03-31T20:16:39.289Z,53.31
2019-03-31T20:19:28.550Z,53.96
2019-03-31T20:22:07.374Z,53.96
2019-03-31T20:24:55.178Z,54.01
2019-03-31T20:27:30.750Z,53.93
2019-03-31T20:30:25.697Z,54.14
2019-03-31T20:33:13.253Z,54.08
2019-03-31T20:36:02.275Z,54.58
2019-03-31T20:38:55.788Z,54.65
2019-03-31T20:41:59.783Z,54.79
2019-03-31T20:44:29.827Z,54.81
2019-03-31T20:47:00.636Z,54.88
2019-03-31T20:49:30.852Z,55.02
2019-03-31T20:52:01.980Z,54.88
2019-03-31T20:54:33.282Z,55.01
2019-03-31T20:57:03.351Z,55.08
2019-03-31T20:59:33.686Z,54.80
2019-03-31T21:02:04.047Z,54.63
2019-03-31T21:04:34.026Z,54.40
2019-03-31T21:07:03.997Z,54.53
2019-03-31T21:09:44.781Z,54.62
2019-03-31T21:12:06.449Z,54.55
2019-03-31T21:14:36.433Z,54.65
2019-03-31T21:17:06.650Z,54.71
2019-03-31T21:19:36.574Z,54.71
2019-03-31T21:22:07.710Z,54.87
2019-03-31T21:24:37.644Z,55.19
2019-03-31T21:27:10.008Z,55.28
2019-03-31T21:29:39.924Z,55.57
2019-03-31T21:32:10.031Z,55.52
2019-03-31T21:34:39.011Z,55.52
2019-03-31T21:37:09.673Z,55.76
2019-03-31T21:39:39.560Z,55.77
2019-03-31T21:42:14.010Z,55.88
2019-03-31T21:44:44.949Z,55.92
2019-03-31T21:47:15.152Z,55.98
2019-03-31T21:49:45.621Z,56.08
2019-03-31T21:52:16.517Z,56.35
2019-03-31T21:54:46.431Z,56.25
2019-03-31T21:57:17.312Z,56.27
2019-03-31T21:59:47.622Z,56.27
2019-03-31T22:02:18.448Z,56.36
2019-03-31T22:04:48.548Z,56.51
2019-03-31T22:07:18.915Z,56.43
2019-03-31T22:09:48.978Z,56.51
2019-03-31T22:12:19.606Z,56.49
2019-03-31T22:14:49.729Z,56.59
2019-03-31T22:17:19.956Z,56.71
2019-03-31T22:19:49.871Z,56.33
2019-03-31T22:22:19.769Z,56.33
2019-03-31T22:24:49.721Z,57.03
2019-03-31T22:27:19.692Z,57.09
2019-03-31T22:29:49.528Z,57.23
2019-03-31T22:32:20.060Z,57.20
2019-03-31T22:34:49.972Z,57.34
2019-03-31T22:37:19.882Z,57.44
2019-03-31T22:39:50.417Z,57.45
2019-03-31T22:42:20.223Z,57.64
2019-03-31T22:44:50.538Z,57.76
2019-03-31T22:47:21.803Z,57.88
2019-03-31T22:49:52.054Z,57.97
2019-03-31T22:52:21.925Z,58.17
2019-03-31T22:54:51.730Z,58.28
2019-03-31T22:57:21.788Z,58.37
2019-03-31T22:59:51.583Z,58.54
2019-03-31T23:02:22.405Z,58.53
2019-03-31T23:04:52.454Z,58.59
2019-03-31T23:07:23.838Z,58.66
2019-03-31T23:09:53.804Z,58.79
2019-03-31T23:12:23.912Z,58.92
2019-03-31T23:14:53.810Z,58.99
2019-03-31T23:17:24.041Z,58.93
2019-03-31T23:19:53.943Z,58.96
2019-03-31T23:22:27.592Z,59.06
2019-03-31T23:24:56.520Z,59.05
2019-03-31T23:27:26.467Z,59.20
2019-03-31T23:29:56.493Z,59.44
2019-03-31T23:32:26.743Z,59.50
2019-03-31T23:34:56.620Z,59.62
2019-03-31T23:37:26.895Z,59.67
2019-03-31T23:39:57.068Z,59.84
2019-03-31T23:45:04.084Z,59.92
2019-03-31T23:47:34.040Z,59.91
2019-03-31T23:50:04.295Z,59.96
2019-03-31T23:52:34.497Z,60.50
2019-03-31T23:55:05.656Z,60.50
2019-03-31T23:57:42.340Z,60.48
